Kupang/El Tari Airport

Airport
ICAO code: 
WATT
IATA Code: 
KOE
Summary
ICAO Region: 
APAC
Territory: 
Location: 
Kupang, Nusa Tenggara Timur
Serving: 
Kupang
Elevation: 
335 ft
Coordinates: 
Aerial View: 
10° 10' 17.699" S, 123° 40' 16.09" E
Metar
Observation
WATT 170330Z 30005KT 8000 FEW015CB BKN015 BKN080 30/28 Q1010 NOSIG RMK CB IN ALL AREA
Station
EL TARI
Date/Time
2022-01-17 03:30:00
Wind direction
300°
Wind speed
05 kts
Lowest cloud amount
few clouds
Temperature
30°C
Dew point
28°C
Humidity
89%
QNH
1010 hPa
Weather condition
n/a

El Tari International Airport is an airport in Kupang, East Nusa Tenggara, Indonesia.

Runways

Designator Length Width Surface Rops
12/30 1273 64 GRE No/No
7/25 2500 45 ASP Yes/Yes
Airport map: 
Aerial View: 

Accidents and Serious Incidents at or in the vicinity of WATT

SKYbrary Partners:

Safety knowledge contributed by: